sensor_id;sensor_type;location;lat;lon;timestamp;pressure;altitude;pressure_sealevel;temperature;humidity
81905;BME280;71370;-33.792;151.032;2024-03-02T00:01:02;100847.67;;;25.18;71.05
81905;BME280;71370;-33.792;151.032;2024-03-02T00:02:10;100844.86;;;25.17;70.95
81905;BME280;71370;-33.792;151.032;2024-03-02T00:03:18;100847.35;;;25.15;70.92
81905;BME280;71370;-33.792;151.032;2024-03-02T00:04:25;100850.01;;;25.13;71.10
81905;BME280;71370;-33.792;151.032;2024-03-02T00:05:32;100854.42;;;25.12;70.86
81905;BME280;71370;-33.792;151.032;2024-03-02T00:06:39;100852.77;;;25.10;71.03
81905;BME280;71370;-33.792;151.032;2024-03-02T00:07:55;100852.09;;;25.09;71.14
81905;BME280;71370;-33.792;151.032;2024-03-02T00:09:03;100857.29;;;25.10;71.22
81905;BME280;71370;-33.792;151.032;2024-03-02T00:10:12;100858.13;;;25.10;71.32
81905;BME280;71370;-33.792;151.032;2024-03-02T00:11:21;100863.13;;;25.13;71.36
81905;BME280;71370;-33.792;151.032;2024-03-02T00:12:28;100866.95;;;25.15;71.15
81905;BME280;71370;-33.792;151.032;2024-03-02T00:13:35;100862.56;;;25.16;71.14
81905;BME280;71370;-33.792;151.032;2024-03-02T00:14:43;100867.67;;;25.17;71.26
81905;BME280;71370;-33.792;151.032;2024-03-02T00:15:54;100872.59;;;25.19;71.07
81905;BME280;71370;-33.792;151.032;2024-03-02T00:17:02;100867.88;;;25.19;70.43
81905;BME280;71370;-33.792;151.032;2024-03-02T00:18:13;100858.83;;;25.18;70.59
81905;BME280;71370;-33.792;151.032;2024-03-02T00:19:21;100860.94;;;25.16;70.83
81905;BME280;71370;-33.792;151.032;2024-03-02T00:20:29;100863.86;;;25.16;71.06
81905;BME280;71370;-33.792;151.032;2024-03-02T00:21:36;100862.58;;;25.16;71.05
81905;BME280;71370;-33.792;151.032;2024-03-02T00:22:43;100861.73;;;25.15;70.93
81905;BME280;71370;-33.792;151.032;2024-03-02T00:23:50;100866.20;;;25.18;70.88
81905;BME280;71370;-33.792;151.032;2024-03-02T00:24:58;100868.45;;;25.19;70.52
81905;BME280;71370;-33.792;151.032;2024-03-02T00:26:06;100872.20;;;25.19;70.25
81905;BME280;71370;-33.792;151.032;2024-03-02T00:27:15;100870.89;;;25.18;70.40
81905;BME280;71370;-33.792;151.032;2024-03-02T00:28:35;100873.51;;;25.16;70.53
81905;BME280;71370;-33.792;151.032;2024-03-02T00:29:42;100873.95;;;25.15;70.61
81905;BME280;71370;-33.792;151.032;2024-03-02T00:31:02;100876.76;;;25.14;70.88
81905;BME280;71370;-33.792;151.032;2024-03-02T00:32:14;100874.81;;;25.13;70.91
81905;BME280;71370;-33.792;151.032;2024-03-02T00:33:25;100875.34;;;25.14;70.94
81905;BME280;71370;-33.792;151.032;2024-03-02T00:34:33;100878.66;;;25.15;71.04
81905;BME280;71370;-33.792;151.032;2024-03-02T00:35:40;100875.96;;;25.15;70.60
81905;BME280;71370;-33.792;151.032;2024-03-02T00:36:47;100872.33;;;25.15;70.55
81905;BME280;71370;-33.792;151.032;2024-03-02T00:37:55;100884.02;;;25.16;70.75
81905;BME280;71370;-33.792;151.032;2024-03-02T00:39:02;100886.02;;;25.15;70.33
81905;BME280;71370;-33.792;151.032;2024-03-02T00:40:10;100878.06;;;25.13;69.97
81905;BME280;71370;-33.792;151.032;2024-03-02T00:41:30;100875.78;;;25.12;70.27
81905;BME280;71370;-33.792;151.032;2024-03-02T00:42:37;100874.21;;;25.12;70.17
81905;BME280;71370;-33.792;151.032;2024-03-02T00:44:05;100861.71;;;25.10;69.81
81905;BME280;71370;-33.792;151.032;2024-03-02T00:45:12;100858.91;;;25.09;69.98
81905;BME280;71370;-33.792;151.032;2024-03-02T00:46:20;100862.89;;;25.09;69.80
81905;BME280;71370;-33.792;151.032;2024-03-02T00:47:27;100863.02;;;25.07;69.66
81905;BME280;71370;-33.792;151.032;2024-03-02T00:48:34;100865.75;;;25.06;69.73
81905;BME280;71370;-33.792;151.032;2024-03-02T00:49:42;100862.13;;;25.07;69.67
81905;BME280;71370;-33.792;151.032;2024-03-02T00:50:52;100860.30;;;25.08;69.84
81905;BME280;71370;-33.792;151.032;2024-03-02T00:51:59;100865.45;;;25.09;69.76
81905;BME280;71370;-33.792;151.032;2024-03-02T00:53:10;100872.86;;;25.08;69.57
81905;BME280;71370;-33.792;151.032;2024-03-02T00:54:23;100872.62;;;25.06;69.56
81905;BME280;71370;-33.792;151.032;2024-03-02T00:55:30;100879.26;;;25.04;69.62
81905;BME280;71370;-33.792;151.032;2024-03-02T00:56:37;100883.69;;;25.02;69.74
81905;BME280;71370;-33.792;151.032;2024-03-02T00:57:45;100882.88;;;25.01;69.89
81905;BME280;71370;-33.792;151.032;2024-03-02T00:58:52;100890.89;;;25.00;69.94
81905;BME280;71370;-33.792;151.032;2024-03-02T01:00:00;100891.92;;;24.98;69.75
81905;BME280;71370;-33.792;151.032;2024-03-02T01:01:07;100886.46;;;24.96;69.70
81905;BME280;71370;-33.792;151.032;2024-03-02T01:02:15;100893.30;;;24.96;69.65
81905;BME280;71370;-33.792;151.032;2024-03-02T01:03:22;100886.34;;;24.96;69.56
81905;BME280;71370;-33.792;151.032;2024-03-02T01:04:30;100887.80;;;24.93;69.40
81905;BME280;71370;-33.792;151.032;2024-03-02T01:05:41;100888.42;;;24.92;69.43
81905;BME280;71370;-33.792;151.032;2024-03-02T01:06:48;100891.15;;;24.91;69.65
81905;BME280;71370;-33.792;151.032;2024-03-02T01:07:55;100889.53;;;24.91;69.75
81905;BME280;71370;-33.792;151.032;2024-03-02T01:09:03;100886.48;;;24.91;69.25
81905;BME280;71370;-33.792;151.032;2024-03-02T01:10:10;100890.94;;;24.92;69.41
81905;BME280;71370;-33.792;151.032;2024-03-02T01:11:18;100889.81;;;24.93;69.34
81905;BME280;71370;-33.792;151.032;2024-03-02T01:12:25;100889.38;;;24.94;69.21
81905;BME280;71370;-33.792;151.032;2024-03-02T01:13:32;100887.81;;;24.93;68.98
81905;BME280;71370;-33.792;151.032;2024-03-02T01:14:39;100887.30;;;24.92;69.22
81905;BME280;71370;-33.792;151.032;2024-03-02T01:15:47;100886.45;;;24.92;69.30
81905;BME280;71370;-33.792;151.032;2024-03-02T01:16:54;100895.25;;;24.92;69.29
81905;BME280;71370;-33.792;151.032;2024-03-02T01:18:01;100895.64;;;24.91;69.17
81905;BME280;71370;-33.792;151.032;2024-03-02T01:19:09;100898.21;;;24.91;69.27
81905;BME280;71370;-33.792;151.032;2024-03-02T01:20:17;100901.77;;;24.91;69.19
81905;BME280;71370;-33.792;151.032;2024-03-02T01:21:24;100899.40;;;24.92;69.26
81905;BME280;71370;-33.792;151.032;2024-03-02T01:22:31;100899.36;;;24.92;69.45
81905;BME280;71370;-33.792;151.032;2024-03-02T01:23:39;100907.09;;;24.95;69.59
81905;BME280;71370;-33.792;151.032;2024-03-02T01:24:46;100912.36;;;24.97;69.53
81905;BME280;71370;-33.792;151.032;2024-03-02T01:25:53;100912.52;;;24.97;69.18
81905;BME280;71370;-33.792;151.032;2024-03-02T01:27:01;100915.51;;;24.98;69.00
81905;BME280;71370;-33.792;151.032;2024-03-02T01:28:08;100918.59;;;24.98;69.24
81905;BME280;71370;-33.792;151.032;2024-03-02T01:29:15;100921.66;;;24.97;69.51
81905;BME280;71370;-33.792;151.032;2024-03-02T01:30:22;100925.66;;;24.97;69.59
81905;BME280;71370;-33.792;151.032;2024-03-02T01:31:29;100926.09;;;24.96;69.47
81905;BME280;71370;-33.792;151.032;2024-03-02T01:32:38;100930.63;;;24.95;69.81
81905;BME280;71370;-33.792;151.032;2024-03-02T01:33:45;100931.94;;;24.94;69.36
81905;BME280;71370;-33.792;151.032;2024-03-02T01:34:52;100935.13;;;24.92;68.91
81905;BME280;71370;-33.792;151.032;2024-03-02T01:35:59;100929.91;;;24.90;69.01
81905;BME280;71370;-33.792;151.032;2024-03-02T01:37:06;100938.79;;;24.89;69.05
81905;BME280;71370;-33.792;151.032;2024-03-02T01:38:13;100934.27;;;24.87;69.07
81905;BME280;71370;-33.792;151.032;2024-03-02T01:39:20;100937.78;;;24.85;69.05
81905;BME280;71370;-33.792;151.032;2024-03-02T01:40:27;100941.65;;;24.84;69.18
81905;BME280;71370;-33.792;151.032;2024-03-02T01:41:34;100940.79;;;24.84;69.15
81905;BME280;71370;-33.792;151.032;2024-03-02T01:42:43;100939.02;;;24.83;69.41
81905;BME280;71370;-33.792;151.032;2024-03-02T01:43:51;100939.34;;;24.83;68.72
81905;BME280;71370;-33.792;151.032;2024-03-02T01:44:58;100936.92;;;24.84;68.87
81905;BME280;71370;-33.792;151.032;2024-03-02T01:46:05;100938.23;;;24.87;68.93
81905;BME280;71370;-33.792;151.032;2024-03-02T01:47:12;100933.56;;;24.89;68.62
81905;BME280;71370;-33.792;151.032;2024-03-02T01:48:19;100933.05;;;24.92;68.75
81905;BME280;71370;-33.792;151.032;2024-03-02T01:49:26;100931.85;;;24.96;68.48
81905;BME280;71370;-33.792;151.032;2024-03-02T01:50:34;100933.84;;;24.98;68.51
81905;BME280;71370;-33.792;151.032;2024-03-02T01:51:41;100936.27;;;24.99;68.37
81905;BME280;71370;-33.792;151.032;2024-03-02T01:52:49;100938.70;;;25.01;68.44
81905;BME280;71370;-33.792;151.032;2024-03-02T01:53:56;100935.94;;;25.01;68.55
81905;BME280;71370;-33.792;151.032;2024-03-02T01:55:03;100938.28;;;25.04;68.82
81905;BME280;71370;-33.792;151.032;2024-03-02T01:56:10;100941.42;;;25.08;68.51
81905;BME280;71370;-33.792;151.032;2024-03-02T01:57:18;100934.98;;;25.10;68.67
81905;BME280;71370;-33.792;151.032;2024-03-02T01:58:25;100942.63;;;25.11;68.63
81905;BME280;71370;-33.792;151.032;2024-03-02T01:59:32;100943.41;;;25.13;68.72
81905;BME280;71370;-33.792;151.032;2024-03-02T02:00:40;100947.17;;;25.13;68.34
81905;BME280;71370;-33.792;151.032;2024-03-02T02:01:47;100949.16;;;25.13;68.43
81905;BME280;71370;-33.792;151.032;2024-03-02T02:02:54;100954.02;;;25.13;68.48
81905;BME280;71370;-33.792;151.032;2024-03-02T02:04:01;100958.13;;;25.11;68.15
81905;BME280;71370;-33.792;151.032;2024-03-02T02:05:08;100963.17;;;25.08;68.36
81905;BME280;71370;-33.792;151.032;2024-03-02T02:06:16;100961.78;;;25.08;68.45
81905;BME280;71370;-33.792;151.032;2024-03-02T02:07:23;100962.40;;;25.09;68.68
81905;BME280;71370;-33.792;151.032;2024-03-02T02:08:30;100960.24;;;25.09;68.49
81905;BME280;71370;-33.792;151.032;2024-03-02T02:09:38;100957.23;;;25.08;68.00
81905;BME280;71370;-33.792;151.032;2024-03-02T02:10:45;100955.75;;;25.06;68.09
81905;BME280;71370;-33.792;151.032;2024-03-02T02:11:52;100955.19;;;25.06;68.34
81905;BME280;71370;-33.792;151.032;2024-03-02T02:13:00;100957.38;;;25.06;68.27
81905;BME280;71370;-33.792;151.032;2024-03-02T02:14:07;100956.50;;;25.06;68.02
81905;BME280;71370;-33.792;151.032;2024-03-02T02:15:32;100957.42;;;25.05;68.00
81905;BME280;71370;-33.792;151.032;2024-03-02T02:16:41;100958.98;;;25.04;68.18
81905;BME280;71370;-33.792;151.032;2024-03-02T02:17:49;100958.89;;;25.03;67.95
81905;BME280;71370;-33.792;151.032;2024-03-02T02:18:56;100965.79;;;25.01;68.08
81905;BME280;71370;-33.792;151.032;2024-03-02T02:20:03;100960.98;;;24.98;68.19
81905;BME280;71370;-33.792;151.032;2024-03-02T02:21:11;100958.28;;;24.96;67.67
81905;BME280;71370;-33.792;151.032;2024-03-02T02:22:18;100959.98;;;24.93;67.87
81905;BME280;71370;-33.792;151.032;2024-03-02T02:23:26;100956.09;;;24.89;67.92
81905;BME280;71370;-33.792;151.032;2024-03-02T02:24:33;100956.02;;;24.84;68.41
81905;BME280;71370;-33.792;151.032;2024-03-02T02:25:40;100953.90;;;24.81;68.55
81905;BME280;71370;-33.792;151.032;2024-03-02T02:26:47;100957.65;;;24.79;68.63
81905;BME280;71370;-33.792;151.032;2024-03-02T02:27:55;100951.71;;;24.77;68.83
81905;BME280;71370;-33.792;151.032;2024-03-02T02:29:02;100955.23;;;24.75;69.25
81905;BME280;71370;-33.792;151.032;2024-03-02T02:30:10;100952.77;;;24.74;69.58
81905;BME280;71370;-33.792;151.032;2024-03-02T02:31:17;100954.70;;;24.75;69.84
81905;BME280;71370;-33.792;151.032;2024-03-02T02:32:24;100950.92;;;24.75;69.33
81905;BME280;71370;-33.792;151.032;2024-03-02T02:33:31;100945.93;;;24.74;69.49
81905;BME280;71370;-33.792;151.032;2024-03-02T02:34:38;100940.98;;;24.73;69.60
81905;BME280;71370;-33.792;151.032;2024-03-02T02:35:45;100942.82;;;24.73;69.77
81905;BME280;71370;-33.792;151.032;2024-03-02T02:36:52;100942.20;;;24.71;69.67
81905;BME280;71370;-33.792;151.032;2024-03-02T02:38:00;100941.19;;;24.71;69.51
81905;BME280;71370;-33.792;151.032;2024-03-02T02:39:19;100933.84;;;24.67;69.53
81905;BME280;71370;-33.792;151.032;2024-03-02T02:40:27;100932.02;;;24.62;69.38
81905;BME280;71370;-33.792;151.032;2024-03-02T02:41:38;100927.70;;;24.60;70.21
81905;BME280;71370;-33.792;151.032;2024-03-02T02:42:45;100933.44;;;24.60;70.37
81905;BME280;71370;-33.792;151.032;2024-03-02T02:43:52;100933.34;;;24.59;70.09
81905;BME280;71370;-33.792;151.032;2024-03-02T02:44:59;100927.53;;;24.57;70.02
81905;BME280;71370;-33.792;151.032;2024-03-02T02:46:06;100923.91;;;24.57;70.26
81905;BME280;71370;-33.792;151.032;2024-03-02T02:47:13;100919.30;;;24.59;70.64
81905;BME280;71370;-33.792;151.032;2024-03-02T02:48:20;100923.09;;;24.61;70.59
81905;BME280;71370;-33.792;151.032;2024-03-02T02:49:27;100931.27;;;24.63;70.47
81905;BME280;71370;-33.792;151.032;2024-03-02T02:50:35;100928.42;;;24.60;69.59
81905;BME280;71370;-33.792;151.032;2024-03-02T02:51:42;100932.77;;;24.57;69.99
81905;BME280;71370;-33.792;151.032;2024-03-02T02:52:49;100931.61;;;24.53;70.04
81905;BME280;71370;-33.792;151.032;2024-03-02T02:53:56;100932.14;;;24.50;70.29
81905;BME280;71370;-33.792;151.032;2024-03-02T02:55:05;100937.70;;;24.47;70.53
81905;BME280;71370;-33.792;151.032;2024-03-02T02:56:12;100938.86;;;24.43;70.72
81905;BME280;71370;-33.792;151.032;2024-03-02T02:57:19;100935.50;;;24.40;70.82
81905;BME280;71370;-33.792;151.032;2024-03-02T02:58:26;100934.65;;;24.37;70.75
81905;BME280;71370;-33.792;151.032;2024-03-02T02:59:35;100936.01;;;24.35;70.92
81905;BME280;71370;-33.792;151.032;2024-03-02T03:00:43;100930.27;;;24.32;71.27
81905;BME280;71370;-33.792;151.032;2024-03-02T03:01:52;100931.44;;;24.31;71.30
81905;BME280;71370;-33.792;151.032;2024-03-02T03:02:59;100927.16;;;24.31;71.68
81905;BME280;71370;-33.792;151.032;2024-03-02T03:04:06;100928.30;;;24.29;71.89
81905;BME280;71370;-33.792;151.032;2024-03-02T03:05:14;100922.02;;;24.29;71.86
81905;BME280;71370;-33.792;151.032;2024-03-02T03:06:21;100916.58;;;24.28;71.55
81905;BME280;71370;-33.792;151.032;2024-03-02T03:07:28;100912.60;;;24.28;71.68
81905;BME280;71370;-33.792;151.032;2024-03-02T03:08:35;100909.66;;;24.29;71.97
81905;BME280;71370;-33.792;151.032;2024-03-02T03:09:43;100906.64;;;24.28;72.07
81905;BME280;71370;-33.792;151.032;2024-03-02T03:10:50;100905.23;;;24.28;72.31
81905;BME280;71370;-33.792;151.032;2024-03-02T03:11:57;100894.68;;;24.27;72.41
81905;BME280;71370;-33.792;151.032;2024-03-02T03:13:04;100890.98;;;24.29;72.50
81905;BME280;71370;-33.792;151.032;2024-03-02T03:14:14;100889.04;;;24.31;72.52
81905;BME280;71370;-33.792;151.032;2024-03-02T03:15:21;100892.13;;;24.31;72.23
81905;BME280;71370;-33.792;151.032;2024-03-02T03:16:28;100890.63;;;24.29;72.05
81905;BME280;71370;-33.792;151.032;2024-03-02T03:17:36;100892.36;;;24.27;72.07
81905;BME280;71370;-33.792;151.032;2024-03-02T03:18:43;100894.09;;;24.25;72.34
81905;BME280;71370;-33.792;151.032;2024-03-02T03:19:50;100899.73;;;24.24;72.67
81905;BME280;71370;-33.792;151.032;2024-03-02T03:20:58;100899.85;;;24.22;72.44
81905;BME280;71370;-33.792;151.032;2024-03-02T03:22:05;100893.66;;;24.21;72.33
81905;BME280;71370;-33.792;151.032;2024-03-02T03:23:12;100888.39;;;24.19;72.28
81905;BME280;71370;-33.792;151.032;2024-03-02T03:24:23;100884.75;;;24.18;72.64
81905;BME280;71370;-33.792;151.032;2024-03-02T03:25:30;100881.85;;;24.18;72.89
81905;BME280;71370;-33.792;151.032;2024-03-02T03:26:37;100883.52;;;24.17;72.65
81905;BME280;71370;-33.792;151.032;2024-03-02T03:27:44;100884.25;;;24.17;72.87
81905;BME280;71370;-33.792;151.032;2024-03-02T03:28:52;100885.99;;;24.18;72.84
81905;BME280;71370;-33.792;151.032;2024-03-02T03:29:59;100883.86;;;24.17;72.84
81905;BME280;71370;-33.792;151.032;2024-03-02T03:31:06;100884.83;;;24.16;72.25
81905;BME280;71370;-33.792;151.032;2024-03-02T03:32:13;100876.02;;;24.14;72.21
81905;BME280;71370;-33.792;151.032;2024-03-02T03:33:21;100870.91;;;24.12;72.77
81905;BME280;71370;-33.792;151.032;2024-03-02T03:34:27;100868.78;;;24.12;72.67
81905;BME280;71370;-33.792;151.032;2024-03-02T03:35:36;100860.23;;;24.10;72.86
81905;BME280;71370;-33.792;151.032;2024-03-02T03:36:43;100857.38;;;24.10;73.10
81905;BME280;71370;-33.792;151.032;2024-03-02T03:37:50;100855.39;;;24.10;73.20
81905;BME280;71370;-33.792;151.032;2024-03-02T03:38:58;100849.24;;;24.11;73.30
81905;BME280;71370;-33.792;151.032;2024-03-02T03:40:06;100845.82;;;24.11;72.99
81905;BME280;71370;-33.792;151.032;2024-03-02T03:41:16;100840.86;;;24.13;73.32
81905;BME280;71370;-33.792;151.032;2024-03-02T03:42:23;100834.30;;;24.14;73.22
81905;BME280;71370;-33.792;151.032;2024-03-02T03:43:30;100831.61;;;24.17;73.51
81905;BME280;71370;-33.792;151.032;2024-03-02T03:44:37;100827.05;;;24.20;73.83
81905;BME280;71370;-33.792;151.032;2024-03-02T03:45:45;100823.14;;;24.25;73.52
81905;BME280;71370;-33.792;151.032;2024-03-02T03:46:52;100821.13;;;24.28;73.56
81905;BME280;71370;-33.792;151.032;2024-03-02T03:47:59;100815.58;;;24.33;73.02
81905;BME280;71370;-33.792;151.032;2024-03-02T03:49:07;100817.63;;;24.37;73.27
81905;BME280;71370;-33.792;151.032;2024-03-02T03:50:14;100814.52;;;24.40;73.98
81905;BME280;71370;-33.792;151.032;2024-03-02T03:51:21;100809.20;;;24.44;74.05
81905;BME280;71370;-33.792;151.032;2024-03-02T03:52:31;100804.45;;;24.48;73.39
81905;BME280;71370;-33.792;151.032;2024-03-02T03:53:38;100799.08;;;24.51;73.08
81905;BME280;71370;-33.792;151.032;2024-03-02T03:54:45;100802.47;;;24.54;73.27
81905;BME280;71370;-33.792;151.032;2024-03-02T03:55:52;100800.29;;;24.57;72.92
81905;BME280;71370;-33.792;151.032;2024-03-02T03:56:59;100800.77;;;24.58;72.69
81905;BME280;71370;-33.792;151.032;2024-03-02T03:58:06;100804.27;;;24.59;72.56
81905;BME280;71370;-33.792;151.032;2024-03-02T03:59:14;100803.84;;;24.59;72.39
81905;BME280;71370;-33.792;151.032;2024-03-02T04:00:21;100800.27;;;24.59;72.67
81905;BME280;71370;-33.792;151.032;2024-03-02T04:01:28;100800.38;;;24.60;72.63
81905;BME280;71370;-33.792;151.032;2024-03-02T04:02:35;100801.11;;;24.63;72.67
81905;BME280;71370;-33.792;151.032;2024-03-02T04:03:42;100809.07;;;24.64;72.55
81905;BME280;71370;-33.792;151.032;2024-03-02T04:04:50;100811.44;;;24.64;72.67
81905;BME280;71370;-33.792;151.032;2024-03-02T04:05:57;100808.06;;;24.66;72.77
81905;BME280;71370;-33.792;151.032;2024-03-02T04:07:04;100809.14;;;24.68;73.02
81905;BME280;71370;-33.792;151.032;2024-03-02T04:08:11;100805.81;;;24.72;73.15
81905;BME280;71370;-33.792;151.032;2024-03-02T04:09:19;100802.66;;;24.76;73.07
81905;BME280;71370;-33.792;151.032;2024-03-02T04:10:25;100797.54;;;24.80;73.09
81905;BME280;71370;-33.792;151.032;2024-03-02T04:11:32;100799.95;;;24.83;73.11
81905;BME280;71370;-33.792;151.032;2024-03-02T04:12:40;100794.67;;;24.87;73.21
81905;BME280;71370;-33.792;151.032;2024-03-02T04:13:47;100793.73;;;24.87;72.48
81905;BME280;71370;-33.792;151.032;2024-03-02T04:14:54;100791.95;;;24.87;72.32
81905;BME280;71370;-33.792;151.032;2024-03-02T04:16:01;100794.67;;;24.87;72.56
81905;BME280;71370;-33.792;151.032;2024-03-02T04:17:10;100793.20;;;24.85;71.66
81905;BME280;71370;-33.792;151.032;2024-03-02T04:18:17;100798.04;;;24.80;71.80
81905;BME280;71370;-33.792;151.032;2024-03-02T04:19:24;100794.30;;;24.75;71.44
81905;BME280;71370;-33.792;151.032;2024-03-02T04:20:31;100798.27;;;24.70;72.01
81905;BME280;71370;-33.792;151.032;2024-03-02T04:21:38;100803.39;;;24.66;72.13
81905;BME280;71370;-33.792;151.032;2024-03-02T04:22:45;100799.95;;;24.61;72.25
81905;BME280;71370;-33.792;151.032;2024-03-02T04:23:52;100803.94;;;24.58;72.44
81905;BME280;71370;-33.792;151.032;2024-03-02T04:25:03;100802.98;;;24.56;72.47
81905;BME280;71370;-33.792;151.032;2024-03-02T04:26:10;100804.05;;;24.54;72.13
81905;BME280;71370;-33.792;151.032;2024-03-02T04:27:18;100804.70;;;24.49;72.12
81905;BME280;71370;-33.792;151.032;2024-03-02T04:28:25;100802.19;;;24.47;72.56
81905;BME280;71370;-33.792;151.032;2024-03-02T04:29:32;100800.84;;;24.46;72.69
81905;BME280;71370;-33.792;151.032;2024-03-02T04:30:39;100803.29;;;24.46;72.80
81905;BME280;71370;-33.792;151.032;2024-03-02T04:31:46;100807.23;;;24.46;72.75
81905;BME280;71370;-33.792;151.032;2024-03-02T04:32:53;100808.36;;;24.46;72.56
81905;BME280;71370;-33.792;151.032;2024-03-02T04:34:00;100810.83;;;24.44;72.51
81905;BME280;71370;-33.792;151.032;2024-03-02T04:35:07;100808.88;;;24.41;72.59
81905;BME280;71370;-33.792;151.032;2024-03-02T04:36:15;100805.61;;;24.39;72.71
81905;BME280;71370;-33.792;151.032;2024-03-02T04:37:22;100805.41;;;24.39;73.10
81905;BME280;71370;-33.792;151.032;2024-03-02T04:38:29;100802.71;;;24.40;72.99
81905;BME280;71370;-33.792;151.032;2024-03-02T04:39:36;100799.10;;;24.40;72.81
81905;BME280;71370;-33.792;151.032;2024-03-02T04:40:43;100801.50;;;24.39;72.82
81905;BME280;71370;-33.792;151.032;2024-03-02T04:41:51;100798.17;;;24.38;72.46
81905;BME280;71370;-33.792;151.032;2024-03-02T04:42:58;100796.88;;;24.36;72.22
81905;BME280;71370;-33.792;151.032;2024-03-02T04:44:09;100796.52;;;24.33;71.59
81905;BME280;71370;-33.792;151.032;2024-03-02T04:45:16;100798.79;;;24.29;71.71
81905;BME280;71370;-33.792;151.032;2024-03-02T04:46:23;100803.52;;;24.25;71.94
81905;BME280;71370;-33.792;151.032;2024-03-02T04:47:31;100807.08;;;24.21;71.64
81905;BME280;71370;-33.792;151.032;2024-03-02T04:48:38;100807.64;;;24.18;71.96
81905;BME280;71370;-33.792;151.032;2024-03-02T04:49:45;100803.08;;;24.14;72.04
81905;BME280;71370;-33.792;151.032;2024-03-02T04:50:53;100800.13;;;24.12;71.93
81905;BME280;71370;-33.792;151.032;2024-03-02T04:52:00;100802.05;;;24.10;72.65
81905;BME280;71370;-33.792;151.032;2024-03-02T04:53:08;100806.86;;;24.08;72.67
81905;BME280;71370;-33.792;151.032;2024-03-02T04:54:15;100807.30;;;24.07;72.99
81905;BME280;71370;-33.792;151.032;2024-03-02T04:55:22;100805.48;;;24.07;73.17
81905;BME280;71370;-33.792;151.032;2024-03-02T04:56:55;100802.98;;;24.07;72.86
81905;BME280;71370;-33.792;151.032;2024-03-02T04:58:02;100798.23;;;24.08;72.81
81905;BME280;71370;-33.792;151.032;2024-03-02T04:59:10;100801.10;;;24.11;72.89
81905;BME280;71370;-33.792;151.032;2024-03-02T05:00:17;100801.73;;;24.15;72.60
81905;BME280;71370;-33.792;151.032;2024-03-02T05:01:24;100800.11;;;24.18;72.28
81905;BME280;71370;-33.792;151.032;2024-03-02T05:02:31;100799.90;;;24.21;72.54
81905;BME280;71370;-33.792;151.032;2024-03-02T05:03:38;100803.31;;;24.23;72.45
81905;BME280;71370;-33.792;151.032;2024-03-02T05:04:45;100810.88;;;24.25;71.84
81905;BME280;71370;-33.792;151.032;2024-03-02T05:05:54;100811.92;;;24.26;72.22
81905;BME280;71370;-33.792;151.032;2024-03-02T05:07:02;100811.66;;;24.27;72.53
81905;BME280;71370;-33.792;151.032;2024-03-02T05:08:09;100807.36;;;24.29;72.75
81905;BME280;71370;-33.792;151.032;2024-03-02T05:09:18;100804.34;;;24.32;72.61
81905;BME280;71370;-33.792;151.032;2024-03-02T05:10:25;100805.08;;;24.31;72.59
81905;BME280;71370;-33.792;151.032;2024-03-02T05:11:32;100804.22;;;24.33;72.29
81905;BME280;71370;-33.792;151.032;2024-03-02T05:12:45;100805.85;;;24.36;72.12
81905;BME280;71370;-33.792;151.032;2024-03-02T05:13:52;100806.05;;;24.38;72.42
81905;BME280;71370;-33.792;151.032;2024-03-02T05:14:59;100808.10;;;24.40;72.13
81905;BME280;71370;-33.792;151.032;2024-03-02T05:16:07;100812.58;;;24.42;72.12
81905;BME280;71370;-33.792;151.032;2024-03-02T05:17:14;100815.33;;;24.44;71.98
81905;BME280;71370;-33.792;151.032;2024-03-02T05:18:21;100816.64;;;24.46;72.08
81905;BME280;71370;-33.792;151.032;2024-03-02T05:19:33;100818.52;;;24.47;71.91
81905;BME280;71370;-33.792;151.032;2024-03-02T05:20:40;100821.55;;;24.47;71.82
81905;BME280;71370;-33.792;151.032;2024-03-02T05:21:47;100827.30;;;24.48;71.61
81905;BME280;71370;-33.792;151.032;2024-03-02T05:22:55;100831.48;;;24.47;71.57
81905;BME280;71370;-33.792;151.032;2024-03-02T05:24:02;100832.41;;;24.46;71.61
81905;BME280;71370;-33.792;151.032;2024-03-02T05:25:09;100829.98;;;24.45;71.61
81905;BME280;71370;-33.792;151.032;2024-03-02T05:26:16;100834.27;;;24.46;71.47
81905;BME280;71370;-33.792;151.032;2024-03-02T05:27:24;100833.54;;;24.46;71.16
81905;BME280;71370;-33.792;151.032;2024-03-02T05:28:31;100834.70;;;24.45;70.97
81905;BME280;71370;-33.792;151.032;2024-03-02T05:29:38;100838.75;;;24.43;70.64
81905;BME280;71370;-33.792;151.032;2024-03-02T05:30:45;100843.36;;;24.42;71.29
81905;BME280;71370;-33.792;151.032;2024-03-02T05:31:53;100841.14;;;24.37;71.01
81905;BME280;71370;-33.792;151.032;2024-03-02T05:33:00;100844.61;;;24.34;70.57
81905;BME280;71370;-33.792;151.032;2024-03-02T05:34:07;100844.50;;;24.30;70.55
81905;BME280;71370;-33.792;151.032;2024-03-02T05:35:14;100847.86;;;24.28;70.53
81905;BME280;71370;-33.792;151.032;2024-03-02T05:36:21;100845.39;;;24.25;70.47
81905;BME280;71370;-33.792;151.032;2024-03-02T05:37:29;100849.93;;;24.22;70.70
81905;BME280;71370;-33.792;151.032;2024-03-02T05:38:36;100859.09;;;24.20;71.16
81905;BME280;71370;-33.792;151.032;2024-03-02T05:39:43;100863.16;;;24.18;70.90
81905;BME280;71370;-33.792;151.032;2024-03-02T05:40:50;100865.05;;;24.17;70.71
81905;BME280;71370;-33.792;151.032;2024-03-02T05:41:57;100871.63;;;24.15;70.63